sensor_id;sensor_type;location;lat;lon;timestamp;temperature;humidity
23681;DHT22;62915;50.832;4.462;2024-03-29T00:02:23;11.30;99.90
23681;DHT22;62915;50.832;4.462;2024-03-29T00:04:49;11.30;99.90
23681;DHT22;62915;50.832;4.462;2024-03-29T00:07:15;11.30;99.90
23681;DHT22;62915;50.832;4.462;2024-03-29T00:09:40;11.30;99.90
23681;DHT22;62915;50.832;4.462;2024-03-29T00:12:09;11.20;99.90
23681;DHT22;62915;50.832;4.462;2024-03-29T00:14:34;11.10;99.90
23681;DHT22;62915;50.832;4.462;2024-03-29T00:17:00;11.20;99.90
23681;DHT22;62915;50.832;4.462;2024-03-29T00:19:29;11.40;99.90
23681;DHT22;62915;50.832;4.462;2024-03-29T00:21:55;11.40;99.90
23681;DHT22;62915;50.832;4.462;2024-03-29T00:24:21;11.40;99.90
23681;DHT22;62915;50.832;4.462;2024-03-29T00:26:47;11.30;99.90
23681;DHT22;62915;50.832;4.462;2024-03-29T00:29:12;11.30;99.90
23681;DHT22;62915;50.832;4.462;2024-03-29T00:31:38;11.30;99.90
23681;DHT22;62915;50.832;4.462;2024-03-29T00:34:04;11.30;99.90
23681;DHT22;62915;50.832;4.462;2024-03-29T00:36:29;11.30;99.90
23681;DHT22;62915;50.832;4.462;2024-03-29T00:38:58;11.40;99.90
23681;DHT22;62915;50.832;4.462;2024-03-29T00:41:26;11.40;99.90
23681;DHT22;62915;50.832;4.462;2024-03-29T00:43:54;11.50;99.90
23681;DHT22;62915;50.832;4.462;2024-03-29T00:46:22;11.40;99.90
23681;DHT22;62915;50.832;4.462;2024-03-29T00:48:48;11.30;99.90
23681;DHT22;62915;50.832;4.462;2024-03-29T00:51:14;11.40;99.90
23681;DHT22;62915;50.832;4.462;2024-03-29T00:53:45;11.40;99.90
23681;DHT22;62915;50.832;4.462;2024-03-29T00:56:14;11.40;99.90
23681;DHT22;62915;50.832;4.462;2024-03-29T00:58:40;11.50;99.90
23681;DHT22;62915;50.832;4.462;2024-03-29T01:01:06;11.40;99.90
23681;DHT22;62915;50.832;4.462;2024-03-29T01:03:34;11.40;99.90
23681;DHT22;62915;50.832;4.462;2024-03-29T01:06:02;11.40;99.90
23681;DHT22;62915;50.832;4.462;2024-03-29T01:08:32;11.40;99.90
23681;DHT22;62915;50.832;4.462;2024-03-29T01:11:00;11.40;99.90
23681;DHT22;62915;50.832;4.462;2024-03-29T01:13:29;11.30;99.90
23681;DHT22;62915;50.832;4.462;2024-03-29T01:15:57;11.30;99.90
23681;DHT22;62915;50.832;4.462;2024-03-29T01:18:22;11.30;99.90
23681;DHT22;62915;50.832;4.462;2024-03-29T01:20:53;11.20;99.90
23681;DHT22;62915;50.832;4.462;2024-03-29T01:23:21;11.20;99.90
23681;DHT22;62915;50.832;4.462;2024-03-29T01:25:49;11.30;99.90
23681;DHT22;62915;50.832;4.462;2024-03-29T01:28:15;11.30;99.90
23681;DHT22;62915;50.832;4.462;2024-03-29T01:30:43;11.30;99.90
23681;DHT22;62915;50.832;4.462;2024-03-29T01:33:11;11.30;99.90
23681;DHT22;62915;50.832;4.462;2024-03-29T01:35:39;11.30;99.90
23681;DHT22;62915;50.832;4.462;2024-03-29T01:38:07;11.40;99.90
23681;DHT22;62915;50.832;4.462;2024-03-29T01:40:33;11.20;99.90
23681;DHT22;62915;50.832;4.462;2024-03-29T01:43:01;11.20;99.90
23681;DHT22;62915;50.832;4.462;2024-03-29T01:45:30;11.20;99.90
23681;DHT22;62915;50.832;4.462;2024-03-29T01:47:56;11.10;99.90
23681;DHT22;62915;50.832;4.462;2024-03-29T01:50:22;11.10;99.90
23681;DHT22;62915;50.832;4.462;2024-03-29T01:52:49;11.10;99.90
23681;DHT22;62915;50.832;4.462;2024-03-29T01:55:15;11.00;99.90
23681;DHT22;62915;50.832;4.462;2024-03-29T01:57:41;10.90;99.90
23681;DHT22;62915;50.832;4.462;2024-03-29T02:00:08;10.80;99.90
23681;DHT22;62915;50.832;4.462;2024-03-29T02:02:34;10.80;99.90
23681;DHT22;62915;50.832;4.462;2024-03-29T02:05:00;10.80;99.90
23681;DHT22;62915;50.832;4.462;2024-03-29T02:07:29;10.80;99.90
23681;DHT22;62915;50.832;4.462;2024-03-29T02:09:57;10.50;99.90
23681;DHT22;62915;50.832;4.462;2024-03-29T02:12:23;10.50;99.90
23681;DHT22;62915;50.832;4.462;2024-03-29T02:14:49;10.40;99.90
23681;DHT22;62915;50.832;4.462;2024-03-29T02:17:14;10.50;99.90
23681;DHT22;62915;50.832;4.462;2024-03-29T02:19:40;10.40;99.90
23681;DHT22;62915;50.832;4.462;2024-03-29T02:22:07;10.30;99.90
23681;DHT22;62915;50.832;4.462;2024-03-29T02:24:34;10.30;99.90
23681;DHT22;62915;50.832;4.462;2024-03-29T02:27:00;10.20;99.90
23681;DHT22;62915;50.832;4.462;2024-03-29T02:29:26;10.20;99.90
23681;DHT22;62915;50.832;4.462;2024-03-29T02:31:52;10.00;99.90
23681;DHT22;62915;50.832;4.462;2024-03-29T02:34:17;10.00;99.90
23681;DHT22;62915;50.832;4.462;2024-03-29T02:36:44;10.20;99.90
23681;DHT22;62915;50.832;4.462;2024-03-29T02:39:11;10.10;99.90
23681;DHT22;62915;50.832;4.462;2024-03-29T02:41:37;10.10;99.90
23681;DHT22;62915;50.832;4.462;2024-03-29T02:44:05;10.10;99.90
23681;DHT22;62915;50.832;4.462;2024-03-29T02:46:31;10.10;99.90
23681;DHT22;62915;50.832;4.462;2024-03-29T02:49:04;10.00;99.90
23681;DHT22;62915;50.832;4.462;2024-03-29T02:51:30;10.10;99.90
23681;DHT22;62915;50.832;4.462;2024-03-29T02:53:58;10.00;99.90
23681;DHT22;62915;50.832;4.462;2024-03-29T02:56:24;9.90;99.90
23681;DHT22;62915;50.832;4.462;2024-03-29T02:58:52;9.90;99.90
23681;DHT22;62915;50.832;4.462;2024-03-29T03:01:18;9.80;99.90
23681;DHT22;62915;50.832;4.462;2024-03-29T03:03:51;9.70;99.90
23681;DHT22;62915;50.832;4.462;2024-03-29T03:06:19;9.70;99.90
23681;DHT22;62915;50.832;4.462;2024-03-29T03:08:44;9.70;99.90
23681;DHT22;62915;50.832;4.462;2024-03-29T03:11:29;9.90;99.90
23681;DHT22;62915;50.832;4.462;2024-03-29T03:13:54;9.70;99.90
23681;DHT22;62915;50.832;4.462;2024-03-29T03:16:20;9.70;99.90
23681;DHT22;62915;50.832;4.462;2024-03-29T03:18:46;9.70;99.90
23681;DHT22;62915;50.832;4.462;2024-03-29T03:21:12;9.60;99.90
23681;DHT22;62915;50.832;4.462;2024-03-29T03:23:38;9.60;99.90
23681;DHT22;62915;50.832;4.462;2024-03-29T03:26:04;9.60;99.90
23681;DHT22;62915;50.832;4.462;2024-03-29T03:28:30;9.60;99.90
23681;DHT22;62915;50.832;4.462;2024-03-29T03:30:56;9.60;99.90
23681;DHT22;62915;50.832;4.462;2024-03-29T03:33:21;9.60;99.90
23681;DHT22;62915;50.832;4.462;2024-03-29T03:35:47;9.40;99.90
23681;DHT22;62915;50.832;4.462;2024-03-29T03:38:14;9.50;99.90
23681;DHT22;62915;50.832;4.462;2024-03-29T03:40:40;9.60;99.90
23681;DHT22;62915;50.832;4.462;2024-03-29T03:43:07;9.60;99.90
23681;DHT22;62915;50.832;4.462;2024-03-29T03:45:37;9.40;99.90
23681;DHT22;62915;50.832;4.462;2024-03-29T03:48:03;9.30;99.90
23681;DHT22;62915;50.832;4.462;2024-03-29T03:50:30;9.30;99.90
23681;DHT22;62915;50.832;4.462;2024-03-29T03:52:56;9.40;99.90
23681;DHT22;62915;50.832;4.462;2024-03-29T03:55:25;9.40;99.90
23681;DHT22;62915;50.832;4.462;2024-03-29T03:57:53;9.40;99.90
23681;DHT22;62915;50.832;4.462;2024-03-29T04:00:20;9.50;99.90
23681;DHT22;62915;50.832;4.462;2024-03-29T04:02:49;9.50;99.90
23681;DHT22;62915;50.832;4.462;2024-03-29T04:05:19;9.50;99.90
23681;DHT22;62915;50.832;4.462;2024-03-29T04:07:46;9.50;99.90
23681;DHT22;62915;50.832;4.462;2024-03-29T04:10:12;9.50;99.90
23681;DHT22;62915;50.832;4.462;2024-03-29T04:12:38;9.50;99.90
23681;DHT22;62915;50.832;4.462;2024-03-29T04:15:07;9.50;99.90
23681;DHT22;62915;50.832;4.462;2024-03-29T04:17:36;9.60;99.90
23681;DHT22;62915;50.832;4.462;2024-03-29T04:20:01;9.50;99.90
23681;DHT22;62915;50.832;4.462;2024-03-29T04:22:33;9.60;99.90
23681;DHT22;62915;50.832;4.462;2024-03-29T04:24:58;9.60;99.90
23681;DHT22;62915;50.832;4.462;2024-03-29T04:27:28;9.60;99.90
23681;DHT22;62915;50.832;4.462;2024-03-29T04:29:54;9.60;99.90
23681;DHT22;62915;50.832;4.462;2024-03-29T04:32:23;9.50;99.90
23681;DHT22;62915;50.832;4.462;2024-03-29T04:34:50;9.60;99.90
23681;DHT22;62915;50.832;4.462;2024-03-29T04:37:23;9.50;99.90
23681;DHT22;62915;50.832;4.462;2024-03-29T04:39:49;9.60;99.90
23681;DHT22;62915;50.832;4.462;2024-03-29T04:42:16;9.60;99.90
23681;DHT22;62915;50.832;4.462;2024-03-29T04:44:43;9.70;99.90
23681;DHT22;62915;50.832;4.462;2024-03-29T04:47:10;9.60;99.90
23681;DHT22;62915;50.832;4.462;2024-03-29T04:49:36;9.60;99.90
23681;DHT22;62915;50.832;4.462;2024-03-29T04:52:07;9.60;99.90
23681;DHT22;62915;50.832;4.462;2024-03-29T04:54:33;9.60;99.90
23681;DHT22;62915;50.832;4.462;2024-03-29T04:57:02;9.70;99.90
23681;DHT22;62915;50.832;4.462;2024-03-29T04:59:29;9.70;99.90
23681;DHT22;62915;50.832;4.462;2024-03-29T05:01:55;9.80;99.90
23681;DHT22;62915;50.832;4.462;2024-03-29T05:04:23;9.70;99.90
23681;DHT22;62915;50.832;4.462;2024-03-29T05:06:55;9.60;99.90
23681;DHT22;62915;50.832;4.462;2024-03-29T05:09:22;9.70;99.90
23681;DHT22;62915;50.832;4.462;2024-03-29T05:11:48;9.60;99.90
23681;DHT22;62915;50.832;4.462;2024-03-29T05:14:16;9.70;99.90
23681;DHT22;62915;50.832;4.462;2024-03-29T05:16:46;9.70;99.90
23681;DHT22;62915;50.832;4.462;2024-03-29T05:19:13;9.70;99.90
23681;DHT22;62915;50.832;4.462;2024-03-29T05:21:39;9.70;99.90
23681;DHT22;62915;50.832;4.462;2024-03-29T05:24:06;9.80;99.90
23681;DHT22;62915;50.832;4.462;2024-03-29T05:26:32;9.80;99.90
23681;DHT22;62915;50.832;4.462;2024-03-29T05:28:58;9.90;99.90
23681;DHT22;62915;50.832;4.462;2024-03-29T05:31:25;9.90;99.90
23681;DHT22;62915;50.832;4.462;2024-03-29T05:33:51;9.90;99.90
23681;DHT22;62915;50.832;4.462;2024-03-29T05:36:17;9.90;99.90
23681;DHT22;62915;50.832;4.462;2024-03-29T05:38:44;10.00;99.90
23681;DHT22;62915;50.832;4.462;2024-03-29T05:41:11;10.00;99.90
23681;DHT22;62915;50.832;4.462;2024-03-29T05:43:41;10.10;99.90
23681;DHT22;62915;50.832;4.462;2024-03-29T05:46:07;10.10;99.90
23681;DHT22;62915;50.832;4.462;2024-03-29T05:48:33;10.00;99.90
23681;DHT22;62915;50.832;4.462;2024-03-29T05:51:04;10.00;99.90
23681;DHT22;62915;50.832;4.462;2024-03-29T05:53:32;9.90;99.90
23681;DHT22;62915;50.832;4.462;2024-03-29T05:56:00;10.00;99.90
23681;DHT22;62915;50.832;4.462;2024-03-29T05:58:26;10.00;99.90
23681;DHT22;62915;50.832;4.462;2024-03-29T06:00:57;10.00;99.90
23681;DHT22;62915;50.832;4.462;2024-03-29T06:03:23;10.00;99.90
23681;DHT22;62915;50.832;4.462;2024-03-29T06:05:49;10.00;99.90
23681;DHT22;62915;50.832;4.462;2024-03-29T06:08:20;9.90;99.90
23681;DHT22;62915;50.832;4.462;2024-03-29T06:10:46;10.00;99.90
23681;DHT22;62915;50.832;4.462;2024-03-29T06:13:12;9.90;99.90
23681;DHT22;62915;50.832;4.462;2024-03-29T06:15:58;10.00;99.90
23681;DHT22;62915;50.832;4.462;2024-03-29T06:18:43;10.00;99.90
23681;DHT22;62915;50.832;4.462;2024-03-29T06:21:09;10.10;99.90
23681;DHT22;62915;50.832;4.462;2024-03-29T06:23:35;10.10;99.90
23681;DHT22;62915;50.832;4.462;2024-03-29T06:26:07;10.10;99.90
23681;DHT22;62915;50.832;4.462;2024-03-29T06:28:33;10.00;99.90
23681;DHT22;62915;50.832;4.462;2024-03-29T06:30:59;10.00;99.90
23681;DHT22;62915;50.832;4.462;2024-03-29T06:33:30;10.00;99.90
23681;DHT22;62915;50.832;4.462;2024-03-29T06:35:55;10.10;99.90
23681;DHT22;62915;50.832;4.462;2024-03-29T06:38:25;10.20;99.90
23681;DHT22;62915;50.832;4.462;2024-03-29T06:40:54;10.20;99.90
23681;DHT22;62915;50.832;4.462;2024-03-29T06:43:22;10.30;99.90
23681;DHT22;62915;50.832;4.462;2024-03-29T06:45:48;10.30;99.90
23681;DHT22;62915;50.832;4.462;2024-03-29T06:48:13;10.30;99.90
23681;DHT22;62915;50.832;4.462;2024-03-29T06:50:39;10.30;99.90
23681;DHT22;62915;50.832;4.462;2024-03-29T06:53:05;10.30;99.90
23681;DHT22;62915;50.832;4.462;2024-03-29T06:55:31;10.30;99.90
23681;DHT22;62915;50.832;4.462;2024-03-29T06:57:57;10.30;99.90
23681;DHT22;62915;50.832;4.462;2024-03-29T07:00:23;10.30;99.90
23681;DHT22;62915;50.832;4.462;2024-03-29T07:02:48;10.20;99.90
23681;DHT22;62915;50.832;4.462;2024-03-29T07:05:14;10.20;99.90
23681;DHT22;62915;50.832;4.462;2024-03-29T07:07:40;10.40;99.90
23681;DHT22;62915;50.832;4.462;2024-03-29T07:10:06;10.70;99.90
23681;DHT22;62915;50.832;4.462;2024-03-29T07:12:32;10.70;99.90
23681;DHT22;62915;50.832;4.462;2024-03-29T07:15:02;10.40;99.90
23681;DHT22;62915;50.832;4.462;2024-03-29T07:17:28;10.20;99.90
23681;DHT22;62915;50.832;4.462;2024-03-29T07:19:58;10.40;99.90
23681;DHT22;62915;50.832;4.462;2024-03-29T07:22:26;10.30;99.90
23681;DHT22;62915;50.832;4.462;2024-03-29T07:24:53;10.20;99.90
23681;DHT22;62915;50.832;4.462;2024-03-29T07:27:21;10.30;99.90
23681;DHT22;62915;50.832;4.462;2024-03-29T07:29:47;10.20;99.90
23681;DHT22;62915;50.832;4.462;2024-03-29T07:32:17;10.10;99.90
23681;DHT22;62915;50.832;4.462;2024-03-29T07:34:43;10.20;99.90
23681;DHT22;62915;50.832;4.462;2024-03-29T07:37:09;10.20;99.90
23681;DHT22;62915;50.832;4.462;2024-03-29T07:39:41;10.20;99.90
23681;DHT22;62915;50.832;4.462;2024-03-29T07:42:08;10.20;99.90
23681;DHT22;62915;50.832;4.462;2024-03-29T07:44:34;10.30;99.90
23681;DHT22;62915;50.832;4.462;2024-03-29T07:47:07;10.30;99.90
23681;DHT22;62915;50.832;4.462;2024-03-29T07:49:34;10.20;99.90
23681;DHT22;62915;50.832;4.462;2024-03-29T07:52:02;10.30;99.90
23681;DHT22;62915;50.832;4.462;2024-03-29T07:54:31;10.40;99.90
23681;DHT22;62915;50.832;4.462;2024-03-29T07:56:57;10.40;99.90
23681;DHT22;62915;50.832;4.462;2024-03-29T07:59:23;10.40;99.90
23681;DHT22;62915;50.832;4.462;2024-03-29T08:01:50;10.30;99.90
23681;DHT22;62915;50.832;4.462;2024-03-29T08:04:18;10.30;99.90
23681;DHT22;62915;50.832;4.462;2024-03-29T08:06:44;10.40;99.90
23681;DHT22;62915;50.832;4.462;2024-03-29T08:09:10;10.40;99.90
23681;DHT22;62915;50.832;4.462;2024-03-29T08:11:40;10.40;99.90
23681;DHT22;62915;50.832;4.462;2024-03-29T08:14:06;10.50;99.90
23681;DHT22;62915;50.832;4.462;2024-03-29T08:16:33;10.50;99.90
23681;DHT22;62915;50.832;4.462;2024-03-29T08:18:59;10.50;99.90
23681;DHT22;62915;50.832;4.462;2024-03-29T08:21:25;10.50;99.90
23681;DHT22;62915;50.832;4.462;2024-03-29T08:23:53;10.50;99.90
23681;DHT22;62915;50.832;4.462;2024-03-29T08:26:21;10.60;99.90
23681;DHT22;62915;50.832;4.462;2024-03-29T08:28:49;10.50;99.90
23681;DHT22;62915;50.832;4.462;2024-03-29T08:31:20;10.60;99.90
23681;DHT22;62915;50.832;4.462;2024-03-29T08:33:46;10.80;99.90
23681;DHT22;62915;50.832;4.462;2024-03-29T08:36:12;10.70;99.90
23681;DHT22;62915;50.832;4.462;2024-03-29T08:38:41;10.80;99.90
23681;DHT22;62915;50.832;4.462;2024-03-29T08:41:09;10.90;99.90
23681;DHT22;62915;50.832;4.462;2024-03-29T08:43:35;11.10;99.90
23681;DHT22;62915;50.832;4.462;2024-03-29T08:46:02;11.10;99.90
23681;DHT22;62915;50.832;4.462;2024-03-29T08:48:29;11.10;99.90
23681;DHT22;62915;50.832;4.462;2024-03-29T08:50:55;11.30;99.90
23681;DHT22;62915;50.832;4.462;2024-03-29T08:53:21;11.40;99.90
23681;DHT22;62915;50.832;4.462;2024-03-29T08:55:52;11.50;99.90
23681;DHT22;62915;50.832;4.462;2024-03-29T08:58:18;11.50;99.90
23681;DHT22;62915;50.832;4.462;2024-03-29T09:00:53;11.40;99.90
23681;DHT22;62915;50.832;4.462;2024-03-29T09:03:24;11.40;99.90
23681;DHT22;62915;50.832;4.462;2024-03-29T09:05:51;11.40;99.90
23681;DHT22;62915;50.832;4.462;2024-03-29T09:08:19;11.50;99.90
23681;DHT22;62915;50.832;4.462;2024-03-29T09:10:45;11.60;99.90
23681;DHT22;62915;50.832;4.462;2024-03-29T09:13:11;11.70;99.90
23681;DHT22;62915;50.832;4.462;2024-03-29T09:15:38;11.90;99.90
23681;DHT22;62915;50.832;4.462;2024-03-29T09:18:05;12.10;99.90
23681;DHT22;62915;50.832;4.462;2024-03-29T09:20:57;12.10;99.90
23681;DHT22;62915;50.832;4.462;2024-03-29T09:23:25;12.30;99.90
23681;DHT22;62915;50.832;4.462;2024-03-29T09:25:51;12.20;99.90
23681;DHT22;62915;50.832;4.462;2024-03-29T09:28:20;12.20;99.90
23681;DHT22;62915;50.832;4.462;2024-03-29T09:30:47;12.30;99.90
23681;DHT22;62915;50.832;4.462;2024-03-29T09:33:13;12.20;99.90
23681;DHT22;62915;50.832;4.462;2024-03-29T09:35:40;12.20;99.90
23681;DHT22;62915;50.832;4.462;2024-03-29T09:38:06;12.30;99.90
23681;DHT22;62915;50.832;4.462;2024-03-29T09:40:35;12.50;99.90
23681;DHT22;62915;50.832;4.462;2024-03-29T09:43:02;12.70;99.90
23681;DHT22;62915;50.832;4.462;2024-03-29T09:45:33;12.90;99.90
23681;DHT22;62915;50.832;4.462;2024-03-29T09:48:06;12.80;99.90
23681;DHT22;62915;50.832;4.462;2024-03-29T09:50:34;12.90;99.90
23681;DHT22;62915;50.832;4.462;2024-03-29T09:53:06;13.00;99.90
23681;DHT22;62915;50.832;4.462;2024-03-29T09:55:35;13.00;99.90
23681;DHT22;62915;50.832;4.462;2024-03-29T09:58:02;13.20;99.90
23681;DHT22;62915;50.832;4.462;2024-03-29T10:00:29;13.50;99.90
23681;DHT22;62915;50.832;4.462;2024-03-29T10:02:56;13.80;99.90
23681;DHT22;62915;50.832;4.462;2024-03-29T10:05:26;14.10;99.90
23681;DHT22;62915;50.832;4.462;2024-03-29T10:07:55;14.60;99.90
23681;DHT22;62915;50.832;4.462;2024-03-29T10:10:22;14.60;99.90
23681;DHT22;62915;50.832;4.462;2024-03-29T10:12:48;14.80;99.90
23681;DHT22;62915;50.832;4.462;2024-03-29T10:15:14;14.90;99.90
23681;DHT22;62915;50.832;4.462;2024-03-29T10:17:47;14.90;99.90
23681;DHT22;62915;50.832;4.462;2024-03-29T10:20:33;14.60;99.90
23681;DHT22;62915;50.832;4.462;2024-03-29T10:23:02;14.30;99.90
23681;DHT22;62915;50.832;4.462;2024-03-29T10:25:32;14.20;99.90
23681;DHT22;62915;50.832;4.462;2024-03-29T10:28:00;14.00;99.90
23681;DHT22;62915;50.832;4.462;2024-03-29T10:30:28;13.70;99.90
23681;DHT22;62915;50.832;4.462;2024-03-29T10:32:58;13.70;99.90
23681;DHT22;62915;50.832;4.462;2024-03-29T10:35:27;13.40;99.90
23681;DHT22;62915;50.832;4.462;2024-03-29T10:37:54;13.40;99.90
23681;DHT22;62915;50.832;4.462;2024-03-29T10:40:21;13.20;99.90
23681;DHT22;62915;50.832;4.462;2024-03-29T10:42:50;13.20;99.90
23681;DHT22;62915;50.832;4.462;2024-03-29T10:45:17;13.20;99.90
23681;DHT22;62915;50.832;4.462;2024-03-29T10:47:44;13.40;99.90
23681;DHT22;62915;50.832;4.462;2024-03-29T10:50:15;13.60;99.90
23681;DHT22;62915;50.832;4.462;2024-03-29T10:52:43;13.60;99.90
23681;DHT22;62915;50.832;4.462;2024-03-29T10:55:10;13.70;99.90
23681;DHT22;62915;50.832;4.462;2024-03-29T10:57:41;13.80;99.90
23681;DHT22;62915;50.832;4.462;2024-03-29T11:00:15;13.70;99.90
23681;DHT22;62915;50.832;4.462;2024-03-29T11:02:57;13.70;99.90
23681;DHT22;62915;50.832;4.462;2024-03-29T11:05:33;13.80;99.90
23681;DHT22;62915;50.832;4.462;2024-03-29T11:08:01;14.00;99.90
23681;DHT22;62915;50.832;4.462;2024-03-29T11:10:39;14.10;99.90
23681;DHT22;62915;50.832;4.462;2024-03-29T11:15:50;14.70;99.90
23681;DHT22;62915;50.832;4.462;2024-03-29T11:18:17;15.10;99.90
23681;DHT22;62915;50.832;4.462;2024-03-29T11:20:48;15.20;99.90
23681;DHT22;62915;50.832;4.462;2024-03-29T11:23:19;15.30;99.90
23681;DHT22;62915;50.832;4.462;2024-03-29T11:25:50;15.20;99.90
23681;DHT22;62915;50.832;4.462;2024-03-29T11:28:35;15.40;99.90
23681;DHT22;62915;50.832;4.462;2024-03-29T11:31:03;15.60;99.90
23681;DHT22;62915;50.832;4.462;2024-03-29T11:38:34;16.00;99.90
23681;DHT22;62915;50.832;4.462;2024-03-29T11:41:10;16.00;99.90
23681;DHT22;62915;50.832;4.462;2024-03-29T11:43:36;15.90;99.90
23681;DHT22;62915;50.832;4.462;2024-03-29T11:46:09;15.90;99.90
23681;DHT22;62915;50.832;4.462;2024-03-29T11:48:36;16.00;99.90
23681;DHT22;62915;50.832;4.462;2024-03-29T11:51:03;16.20;99.90
23681;DHT22;62915;50.832;4.462;2024-03-29T11:53:30;16.40;99.90
23681;DHT22;62915;50.832;4.462;2024-03-29T11:56:01;16.60;99.90
23681;DHT22;62915;50.832;4.462;2024-03-29T11:58:29;16.80;99.90
23681;DHT22;62915;50.832;4.462;2024-03-29T12:00:56;16.70;99.90
23681;DHT22;62915;50.832;4.462;2024-03-29T12:03:26;16.70;99.90
23681;DHT22;62915;50.832;4.462;2024-03-29T12:05:54;16.70;99.90
23681;DHT22;62915;50.832;4.462;2024-03-29T12:08:24;16.60;99.90
23681;DHT22;62915;50.832;4.462;2024-03-29T12:10:52;16.70;99.90
23681;DHT22;62915;50.832;4.462;2024-03-29T12:13:18;16.90;99.90
23681;DHT22;62915;50.832;4.462;2024-03-29T12:15:44;16.90;99.90
23681;DHT22;62915;50.832;4.462;2024-03-29T12:18:10;16.90;99.90
23681;DHT22;62915;50.832;4.462;2024-03-29T12:20:40;16.90;99.90
23681;DHT22;62915;50.832;4.462;2024-03-29T12:23:08;16.90;99.90
23681;DHT22;62915;50.832;4.462;2024-03-29T12:25:36;17.10;99.90
23681;DHT22;62915;50.832;4.462;2024-03-29T12:28:03;17.20;99.90
23681;DHT22;62915;50.832;4.462;2024-03-29T12:30:30;17.00;99.90
23681;DHT22;62915;50.832;4.462;2024-03-29T12:33:07;17.10;99.90
23681;DHT22;62915;50.832;4.462;2024-03-29T12:35:34;17.00;99.90
23681;DHT22;62915;50.832;4.462;2024-03-29T12:38:02;16.80;99.90
23681;DHT22;62915;50.832;4.462;2024-03-29T12:40:34;16.70;99.90
23681;DHT22;62915;50.832;4.462;2024-03-29T12:43:04;16.60;99.90
23681;DHT22;62915;50.832;4.462;2024-03-29T12:45:31;16.50;99.90
23681;DHT22;62915;50.832;4.462;2024-03-29T12:47:59;16.50;99.90
23681;DHT22;62915;50.832;4.462;2024-03-29T12:50:30;16.50;99.90
23681;DHT22;62915;50.832;4.462;2024-03-29T12:53:00;16.70;99.90
23681;DHT22;62915;50.832;4.462;2024-03-29T12:55:28;16.50;99.90
23681;DHT22;62915;50.832;4.462;2024-03-29T12:57:56;16.30;99.90
23681;DHT22;62915;50.832;4.462;2024-03-29T13:00:23;16.60;99.90
23681;DHT22;62915;50.832;4.462;2024-03-29T13:02:49;16.50;99.90
23681;DHT22;62915;50.832;4.462;2024-03-29T13:05:15;16.50;99.90
23681;DHT22;62915;50.832;4.462;2024-03-29T13:07:41;16.80;99.90
23681;DHT22;62915;50.832;4.462;2024-03-29T13:10:08;16.60;99.90
23681;DHT22;62915;50.832;4.462;2024-03-29T13:12:45;16.60;99.90
23681;DHT22;62915;50.832;4.462;2024-03-29T13:15:20;16.50;99.90
23681;DHT22;62915;50.832;4.462;2024-03-29T13:17:48;16.50;99.90
23681;DHT22;62915;50.832;4.462;2024-03-29T13:20:15;16.40;99.90
23681;DHT22;62915;50.832;4.462;2024-03-29T13:22:45;16.50;99.90
23681;DHT22;62915;50.832;4.462;2024-03-29T13:25:18;16.60;99.90
23681;DHT22;62915;50.832;4.462;2024-03-29T13:27:46;16.50;99.90
23681;DHT22;62915;50.832;4.462;2024-03-29T13:30:14;16.60;99.90
23681;DHT22;62915;50.832;4.462;2024-03-29T13:32:42;16.60;99.90
23681;DHT22;62915;50.832;4.462;2024-03-29T13:35:11;16.70;99.90
23681;DHT22;62915;50.832;4.462;2024-03-29T13:37:42;16.50;99.90
23681;DHT22;62915;50.832;4.462;2024-03-29T13:40:14;16.40;99.90
23681;DHT22;62915;50.832;4.462;2024-03-29T13:42:41;16.50;99.90
23681;DHT22;62915;50.832;4.462;2024-03-29T13:45:08;16.40;99.90
23681;DHT22;62915;50.832;4.462;2024-03-29T13:47:37;16.20;99.90
23681;DHT22;62915;50.832;4.462;2024-03-29T13:50:04;16.20;99.90
23681;DHT22;62915;50.832;4.462;2024-03-29T13:52:30;16.40;99.90
23681;DHT22;62915;50.832;4.462;2024-03-29T13:54:56;16.60;99.90
23681;DHT22;62915;50.832;4.462;2024-03-29T13:57:22;16.70;99.90
23681;DHT22;62915;50.832;4.462;2024-03-29T13:59:48;16.70;99.90
23681;DHT22;62915;50.832;4.462;2024-03-29T14:02:18;16.70;99.90
23681;DHT22;62915;50.832;4.462;2024-03-29T14:04:44;16.70;99.90
23681;DHT22;62915;50.832;4.462;2024-03-29T14:07:12;16.70;99.90
23681;DHT22;62915;50.832;4.462;2024-03-29T14:09:39;16.50;99.90
23681;DHT22;62915;50.832;4.462;2024-03-29T14:12:05;16.30;99.90
23681;DHT22;62915;50.832;4.462;2024-03-29T14:14:32;16.10;99.90
23681;DHT22;62915;50.832;4.462;2024-03-29T14:16:58;16.00;99.90
23681;DHT22;62915;50.832;4.462;2024-03-29T14:19:24;16.10;99.90
23681;DHT22;62915;50.832;4.462;2024-03-29T14:21:50;16.20;99.90
23681;DHT22;62915;50.832;4.462;2024-03-29T14:24:15;16.20;99.90
23681;DHT22;62915;50.832;4.462;2024-03-29T14:26:43;16.30;99.90
23681;DHT22;62915;50.832;4.462;2024-03-29T14:29:09;16.30;99.90
23681;DHT22;62915;50.832;4.462;2024-03-29T14:31:38;16.40;99.90
23681;DHT22;62915;50.832;4.462;2024-03-29T14:34:03;16.30;99.90
23681;DHT22;62915;50.832;4.462;2024-03-29T14:36:29;16.20;99.90
23681;DHT22;62915;50.832;4.462;2024-03-29T14:38:59;16.10;99.90
23681;DHT22;62915;50.832;4.462;2024-03-29T14:41:27;16.20;99.90
23681;DHT22;62915;50.832;4.462;2024-03-29T14:43:54;16.10;99.90
23681;DHT22;62915;50.832;4.462;2024-03-29T14:46:21;15.90;99.90
23681;DHT22;62915;50.832;4.462;2024-03-29T14:48:47;15.80;99.90
23681;DHT22;62915;50.832;4.462;2024-03-29T14:51:13;15.80;99.90
23681;DHT22;62915;50.832;4.462;2024-03-29T14:53:39;15.80;99.90
23681;DHT22;62915;50.832;4.462;2024-03-29T14:56:04;15.90;99.90
23681;DHT22;62915;50.832;4.462;2024-03-29T14:58:30;15.90;99.90
23681;DHT22;62915;50.832;4.462;2024-03-29T15:00:57;16.10;99.90
23681;DHT22;62915;50.832;4.462;2024-03-29T15:03:22;16.20;99.90
23681;DHT22;62915;50.832;4.462;2024-03-29T15:05:49;16.40;99.90
23681;DHT22;62915;50.832;4.462;2024-03-29T15:08:15;16.40;99.90
23681;DHT22;62915;50.832;4.462;2024-03-29T15:10:44;16.20;99.90
23681;DHT22;62915;50.832;4.462;2024-03-29T15:13:09;16.30;99.90
23681;DHT22;62915;50.832;4.462;2024-03-29T15:15:35;16.20;99.90
23681;DHT22;62915;50.832;4.462;2024-03-29T15:18:05;16.20;99.90
23681;DHT22;62915;50.832;4.462;2024-03-29T15:20:32;16.20;99.90
23681;DHT22;62915;50.832;4.462;2024-03-29T15:22:58;16.10;99.90
23681;DHT22;62915;50.832;4.462;2024-03-29T15:25:24;16.20;99.90
23681;DHT22;62915;50.832;4.462;2024-03-29T15:27:50;16.10;99.90
23681;DHT22;62915;50.832;4.462;2024-03-29T15:30:34;16.10;99.90
23681;DHT22;62915;50.832;4.462;2024-03-29T15:33:02;15.80;99.90
23681;DHT22;62915;50.832;4.462;2024-03-29T15:35:27;15.80;99.90
23681;DHT22;62915;50.832;4.462;2024-03-29T15:37:53;15.90;99.90
23681;DHT22;62915;50.832;4.462;2024-03-29T15:40:20;15.90;99.90
23681;DHT22;62915;50.832;4.462;2024-03-29T15:42:46;16.00;99.90
23681;DHT22;62915;50.832;4.462;2024-03-29T15:45:12;16.00;99.90